sensor_id;sensor_type;location;lat;lon;timestamp;P1;durP1;ratioP1;P2;durP2;ratioP2
45314;SDS011;31051;51.540;5.852;2023-11-19T00:08:51;5.6;;;4.7;;
45314;SDS011;31051;51.540;5.852;2023-11-19T00:21:50;6.0;;;4.0;;
45314;SDS011;31051;51.540;5.852;2023-11-19T00:34:50;5.0;;;3.1;;
45314;SDS011;31051;51.540;5.852;2023-11-19T00:47:49;5.5;;;2.7;;
45314;SDS011;31051;51.540;5.852;2023-11-19T01:00:48;4.3;;;2.3;;
45314;SDS011;31051;51.540;5.852;2023-11-19T01:13:48;4.8;;;2.2;;
45314;SDS011;31051;51.540;5.852;2023-11-19T01:26:47;5.4;;;2.2;;
45314;SDS011;31051;51.540;5.852;2023-11-19T01:39:46;6.2;;;2.4;;
45314;SDS011;31051;51.540;5.852;2023-11-19T01:52:46;7.7;;;2.6;;
45314;SDS011;31051;51.540;5.852;2023-11-19T02:05:45;9.4;;;2.8;;
45314;SDS011;31051;51.540;5.852;2023-11-19T02:18:44;8.5;;;2.7;;
45314;SDS011;31051;51.540;5.852;2023-11-19T02:31:44;9.5;;;2.9;;
45314;SDS011;31051;51.540;5.852;2023-11-19T02:44:43;9.1;;;3.1;;
45314;SDS011;31051;51.540;5.852;2023-11-19T02:57:42;8.3;;;2.7;;
45314;SDS011;31051;51.540;5.852;2023-11-19T03:10:42;11.2;;;3.2;;
45314;SDS011;31051;51.540;5.852;2023-11-19T03:23:41;15.1;;;4.2;;
45314;SDS011;31051;51.540;5.852;2023-11-19T03:36:41;15.8;;;4.3;;
45314;SDS011;31051;51.540;5.852;2023-11-19T03:49:40;17.7;;;4.4;;
45314;SDS011;31051;51.540;5.852;2023-11-19T04:02:39;18.4;;;4.8;;
45314;SDS011;31051;51.540;5.852;2023-11-19T04:15:39;22.3;;;5.4;;
45314;SDS011;31051;51.540;5.852;2023-11-19T04:28:38;22.3;;;5.8;;
45314;SDS011;31051;51.540;5.852;2023-11-19T04:41:37;22.2;;;5.5;;
45314;SDS011;31051;51.540;5.852;2023-11-19T04:54:37;19.9;;;5.4;;
45314;SDS011;31051;51.540;5.852;2023-11-19T05:07:36;22.1;;;5.8;;
45314;SDS011;31051;51.540;5.852;2023-11-19T05:20:35;23.4;;;6.0;;
45314;SDS011;31051;51.540;5.852;2023-11-19T05:33:35;20.6;;;5.4;;
45314;SDS011;31051;51.540;5.852;2023-11-19T05:46:34;22.9;;;5.6;;
45314;SDS011;31051;51.540;5.852;2023-11-19T05:59:33;24.3;;;6.2;;
45314;SDS011;31051;51.540;5.852;2023-11-19T06:12:33;24.4;;;6.5;;
45314;SDS011;31051;51.540;5.852;2023-11-19T06:25:32;22.5;;;6.0;;
45314;SDS011;31051;51.540;5.852;2023-11-19T06:38:31;22.3;;;5.8;;
45314;SDS011;31051;51.540;5.852;2023-11-19T06:51:31;22.3;;;6.1;;
45314;SDS011;31051;51.540;5.852;2023-11-19T07:04:30;24.9;;;6.1;;
45314;SDS011;31051;51.540;5.852;2023-11-19T07:17:29;23.1;;;6.0;;
45314;SDS011;31051;51.540;5.852;2023-11-19T07:30:29;25.4;;;6.4;;
45314;SDS011;31051;51.540;5.852;2023-11-19T07:43:28;24.0;;;6.0;;
45314;SDS011;31051;51.540;5.852;2023-11-19T07:56:27;25.3;;;6.2;;
45314;SDS011;31051;51.540;5.852;2023-11-19T08:09:27;24.3;;;6.3;;
45314;SDS011;31051;51.540;5.852;2023-11-19T08:22:26;25.3;;;6.6;;
45314;SDS011;31051;51.540;5.852;2023-11-19T08:35:25;24.1;;;6.4;;
45314;SDS011;31051;51.540;5.852;2023-11-19T08:48:25;21.6;;;5.8;;
45314;SDS011;31051;51.540;5.852;2023-11-19T09:01:24;24.4;;;6.3;;
45314;SDS011;31051;51.540;5.852;2023-11-19T09:14:23;24.4;;;6.4;;
45314;SDS011;31051;51.540;5.852;2023-11-19T09:27:23;24.3;;;6.6;;
45314;SDS011;31051;51.540;5.852;2023-11-19T09:40:22;24.5;;;6.4;;
45314;SDS011;31051;51.540;5.852;2023-11-19T09:53:21;23.2;;;6.3;;
45314;SDS011;31051;51.540;5.852;2023-11-19T10:06:21;23.1;;;6.0;;
45314;SDS011;31051;51.540;5.852;2023-11-19T10:19:20;21.4;;;6.1;;
45314;SDS011;31051;51.540;5.852;2023-11-19T10:32:19;21.8;;;6.0;;
45314;SDS011;31051;51.540;5.852;2023-11-19T10:45:19;20.9;;;5.9;;
45314;SDS011;31051;51.540;5.852;2023-11-19T10:58:18;20.0;;;5.4;;
45314;SDS011;31051;51.540;5.852;2023-11-19T11:11:17;21.3;;;5.5;;
45314;SDS011;31051;51.540;5.852;2023-11-19T11:24:17;19.8;;;5.2;;
45314;SDS011;31051;51.540;5.852;2023-11-19T11:37:16;19.6;;;5.2;;
45314;SDS011;31051;51.540;5.852;2023-11-19T11:50:15;19.1;;;5.2;;
45314;SDS011;31051;51.540;5.852;2023-11-19T12:03:15;16.8;;;4.6;;
45314;SDS011;31051;51.540;5.852;2023-11-19T12:16:14;15.7;;;4.5;;
45314;SDS011;31051;51.540;5.852;2023-11-19T12:29:13;15.5;;;4.6;;
45314;SDS011;31051;51.540;5.852;2023-11-19T12:42:13;16.0;;;4.7;;
45314;SDS011;31051;51.540;5.852;2023-11-19T12:55:12;18.2;;;5.0;;
45314;SDS011;31051;51.540;5.852;2023-11-19T13:08:12;18.3;;;4.9;;
45314;SDS011;31051;51.540;5.852;2023-11-19T13:21:11;16.8;;;4.7;;
45314;SDS011;31051;51.540;5.852;2023-11-19T13:34:10;18.2;;;4.7;;
45314;SDS011;31051;51.540;5.852;2023-11-19T13:47:10;16.4;;;4.6;;
45314;SDS011;31051;51.540;5.852;2023-11-19T14:00:09;16.4;;;4.4;;
45314;SDS011;31051;51.540;5.852;2023-11-19T14:13:08;15.4;;;4.5;;
45314;SDS011;31051;51.540;5.852;2023-11-19T14:26:08;15.0;;;4.1;;
45314;SDS011;31051;51.540;5.852;2023-11-19T14:39:07;15.2;;;4.2;;
45314;SDS011;31051;51.540;5.852;2023-11-19T14:52:06;14.1;;;4.1;;
45314;SDS011;31051;51.540;5.852;2023-11-19T15:05:06;14.2;;;4.0;;
45314;SDS011;31051;51.540;5.852;2023-11-19T15:18:05;14.3;;;4.2;;
45314;SDS011;31051;51.540;5.852;2023-11-19T15:31:04;16.1;;;4.4;;
45314;SDS011;31051;51.540;5.852;2023-11-19T15:44:04;18.3;;;4.8;;
45314;SDS011;31051;51.540;5.852;2023-11-19T15:57:03;15.1;;;3.9;;
45314;SDS011;31051;51.540;5.852;2023-11-19T16:10:02;12.5;;;3.6;;
45314;SDS011;31051;51.540;5.852;2023-11-19T16:23:02;15.6;;;4.4;;
45314;SDS011;31051;51.540;5.852;2023-11-19T16:36:01;16.8;;;4.6;;
45314;SDS011;31051;51.540;5.852;2023-11-19T16:49:00;17.1;;;4.1;;
45314;SDS011;31051;51.540;5.852;2023-11-19T17:02:00;17.4;;;4.4;;
45314;SDS011;31051;51.540;5.852;2023-11-19T17:14:59;17.6;;;4.6;;
45314;SDS011;31051;51.540;5.852;2023-11-19T17:27:58;16.2;;;4.6;;
45314;SDS011;31051;51.540;5.852;2023-11-19T17:40:58;17.6;;;4.8;;
45314;SDS011;31051;51.540;5.852;2023-11-19T17:53:57;18.5;;;4.8;;
45314;SDS011;31051;51.540;5.852;2023-11-19T18:06:56;16.1;;;4.3;;
45314;SDS011;31051;51.540;5.852;2023-11-19T18:19:55;14.0;;;3.8;;
45314;SDS011;31051;51.540;5.852;2023-11-19T18:32:55;12.8;;;3.5;;
45314;SDS011;31051;51.540;5.852;2023-11-19T18:45:54;11.1;;;3.3;;
45314;SDS011;31051;51.540;5.852;2023-11-19T18:58:53;11.9;;;3.4;;
45314;SDS011;31051;51.540;5.852;2023-11-19T19:11:53;10.2;;;3.1;;
45314;SDS011;31051;51.540;5.852;2023-11-19T19:24:52;9.6;;;2.8;;
45314;SDS011;31051;51.540;5.852;2023-11-19T19:37:51;9.6;;;3.1;;
45314;SDS011;31051;51.540;5.852;2023-11-19T19:50:51;11.1;;;3.2;;
45314;SDS011;31051;51.540;5.852;2023-11-19T20:03:50;11.2;;;3.4;;
45314;SDS011;31051;51.540;5.852;2023-11-19T20:16:49;11.8;;;3.7;;
45314;SDS011;31051;51.540;5.852;2023-11-19T20:29:49;11.4;;;3.6;;
45314;SDS011;31051;51.540;5.852;2023-11-19T20:42:48;10.9;;;3.2;;
45314;SDS011;31051;51.540;5.852;2023-11-19T20:55:47;10.1;;;3.0;;
45314;SDS011;31051;51.540;5.852;2023-11-19T21:08:46;9.8;;;3.2;;
45314;SDS011;31051;51.540;5.852;2023-11-19T21:21:46;9.4;;;3.0;;
45314;SDS011;31051;51.540;5.852;2023-11-19T21:34:45;8.4;;;2.7;;
45314;SDS011;31051;51.540;5.852;2023-11-19T21:47:44;7.9;;;2.6;;
45314;SDS011;31051;51.540;5.852;2023-11-19T22:00:44;7.6;;;2.6;;
45314;SDS011;31051;51.540;5.852;2023-11-19T22:13:43;8.3;;;2.6;;
45314;SDS011;31051;51.540;5.852;2023-11-19T22:26:42;10.7;;;2.8;;
45314;SDS011;31051;51.540;5.852;2023-11-19T22:39:42;9.5;;;3.0;;
45314;SDS011;31051;51.540;5.852;2023-11-19T22:52:41;9.2;;;3.1;;
45314;SDS011;31051;51.540;5.852;2023-11-19T23:05:40;9.7;;;3.1;;
45314;SDS011;31051;51.540;5.852;2023-11-19T23:31:39;9.4;;;3.0;;
45314;SDS011;31051;51.540;5.852;2023-11-19T23:44:38;10.8;;;3.4;;
45314;SDS011;31051;51.540;5.852;2023-11-19T23:57:38;9.4;;;3.2;;
